sensor_id;sensor_type;location;lat;lon;timestamp;P1;durP1;ratioP1;P2;durP2;ratioP2
55290;SDS011;41155;39.768;2.712;2023-04-25T00:01:58;10.75;;;5.03;;
55290;SDS011;41155;39.768;2.712;2023-04-25T00:04:24;5.60;;;4.88;;
55290;SDS011;41155;39.768;2.712;2023-04-25T00:06:50;12.98;;;5.25;;
55290;SDS011;41155;39.768;2.712;2023-04-25T00:09:17;5.10;;;4.60;;
55290;SDS011;41155;39.768;2.712;2023-04-25T00:11:42;13.45;;;4.78;;
55290;SDS011;41155;39.768;2.712;2023-04-25T00:14:08;4.95;;;4.30;;
55290;SDS011;41155;39.768;2.712;2023-04-25T00:16:35;16.30;;;4.35;;
55290;SDS011;41155;39.768;2.712;2023-04-25T00:19:02;4.53;;;4.05;;
55290;SDS011;41155;39.768;2.712;2023-04-25T00:21:28;6.88;;;4.30;;
55290;SDS011;41155;39.768;2.712;2023-04-25T00:23:54;6.72;;;4.45;;
55290;SDS011;41155;39.768;2.712;2023-04-25T00:26:20;5.05;;;4.00;;
55290;SDS011;41155;39.768;2.712;2023-04-25T00:28:46;8.82;;;4.25;;
55290;SDS011;41155;39.768;2.712;2023-04-25T00:31:12;7.35;;;5.10;;
55290;SDS011;41155;39.768;2.712;2023-04-25T00:33:38;13.25;;;5.55;;
55290;SDS011;41155;39.768;2.712;2023-04-25T00:36:04;9.93;;;5.70;;
55290;SDS011;41155;39.768;2.712;2023-04-25T00:38:30;7.55;;;5.05;;
55290;SDS011;41155;39.768;2.712;2023-04-25T00:40:55;8.35;;;4.00;;
55290;SDS011;41155;39.768;2.712;2023-04-25T00:43:22;7.13;;;4.45;;
55290;SDS011;41155;39.768;2.712;2023-04-25T00:45:50;7.55;;;4.28;;
55290;SDS011;41155;39.768;2.712;2023-04-25T00:48:17;4.20;;;3.88;;
55290;SDS011;41155;39.768;2.712;2023-04-25T00:50:45;6.57;;;4.30;;
55290;SDS011;41155;39.768;2.712;2023-04-25T00:53:24;4.72;;;3.70;;
55290;SDS011;41155;39.768;2.712;2023-04-25T00:55:51;6.28;;;4.35;;
55290;SDS011;41155;39.768;2.712;2023-04-25T00:58:17;4.72;;;4.22;;
55290;SDS011;41155;39.768;2.712;2023-04-25T01:00:43;4.75;;;3.83;;
55290;SDS011;41155;39.768;2.712;2023-04-25T01:03:11;5.70;;;4.20;;
55290;SDS011;41155;39.768;2.712;2023-04-25T01:05:37;7.13;;;4.85;;
55290;SDS011;41155;39.768;2.712;2023-04-25T01:08:05;8.75;;;4.72;;
55290;SDS011;41155;39.768;2.712;2023-04-25T01:10:31;9.70;;;4.82;;
55290;SDS011;41155;39.768;2.712;2023-04-25T01:12:56;7.15;;;3.92;;
55290;SDS011;41155;39.768;2.712;2023-04-25T01:15:21;8.40;;;4.45;;
55290;SDS011;41155;39.768;2.712;2023-04-25T01:17:47;11.65;;;5.55;;
55290;SDS011;41155;39.768;2.712;2023-04-25T01:20:14;10.10;;;4.50;;
55290;SDS011;41155;39.768;2.712;2023-04-25T01:22:41;6.00;;;4.35;;
55290;SDS011;41155;39.768;2.712;2023-04-25T01:25:07;5.30;;;4.38;;
55290;SDS011;41155;39.768;2.712;2023-04-25T01:27:33;36.40;;;6.22;;
55290;SDS011;41155;39.768;2.712;2023-04-25T01:30:00;7.97;;;5.20;;
55290;SDS011;41155;39.768;2.712;2023-04-25T01:32:26;6.28;;;4.10;;
55290;SDS011;41155;39.768;2.712;2023-04-25T01:34:52;8.10;;;3.88;;
55290;SDS011;41155;39.768;2.712;2023-04-25T01:37:17;5.63;;;4.45;;
55290;SDS011;41155;39.768;2.712;2023-04-25T01:39:43;7.60;;;4.00;;
55290;SDS011;41155;39.768;2.712;2023-04-25T01:42:09;7.13;;;4.10;;
55290;SDS011;41155;39.768;2.712;2023-04-25T01:44:34;9.13;;;4.88;;
55290;SDS011;41155;39.768;2.712;2023-04-25T01:47:00;4.82;;;4.25;;
55290;SDS011;41155;39.768;2.712;2023-04-25T01:49:25;4.63;;;4.18;;
55290;SDS011;41155;39.768;2.712;2023-04-25T01:51:51;6.05;;;4.63;;
55290;SDS011;41155;39.768;2.712;2023-04-25T01:54:17;13.65;;;4.53;;
55290;SDS011;41155;39.768;2.712;2023-04-25T01:56:49;10.63;;;5.22;;
55290;SDS011;41155;39.768;2.712;2023-04-25T01:59:15;5.72;;;4.50;;
55290;SDS011;41155;39.768;2.712;2023-04-25T02:01:43;4.55;;;4.10;;
55290;SDS011;41155;39.768;2.712;2023-04-25T02:04:09;8.30;;;4.07;;
55290;SDS011;41155;39.768;2.712;2023-04-25T02:06:34;5.05;;;4.30;;
55290;SDS011;41155;39.768;2.712;2023-04-25T02:09:00;5.07;;;3.97;;
55290;SDS011;41155;39.768;2.712;2023-04-25T02:11:25;4.22;;;3.80;;
55290;SDS011;41155;39.768;2.712;2023-04-25T02:13:51;6.72;;;4.20;;
55290;SDS011;41155;39.768;2.712;2023-04-25T02:16:16;7.85;;;4.07;;
55290;SDS011;41155;39.768;2.712;2023-04-25T02:18:42;10.93;;;4.93;;
55290;SDS011;41155;39.768;2.712;2023-04-25T02:21:09;6.22;;;4.72;;
55290;SDS011;41155;39.768;2.712;2023-04-25T02:23:36;7.68;;;5.00;;
55290;SDS011;41155;39.768;2.712;2023-04-25T02:26:02;8.23;;;5.43;;
55290;SDS011;41155;39.768;2.712;2023-04-25T02:28:27;7.43;;;4.75;;
55290;SDS011;41155;39.768;2.712;2023-04-25T02:30:53;7.25;;;4.30;;
55290;SDS011;41155;39.768;2.712;2023-04-25T02:33:18;7.88;;;4.60;;
55290;SDS011;41155;39.768;2.712;2023-04-25T02:35:45;7.22;;;4.88;;
55290;SDS011;41155;39.768;2.712;2023-04-25T02:38:11;19.05;;;5.20;;
55290;SDS011;41155;39.768;2.712;2023-04-25T02:40:36;15.38;;;5.47;;
55290;SDS011;41155;39.768;2.712;2023-04-25T02:43:02;15.13;;;5.55;;
55290;SDS011;41155;39.768;2.712;2023-04-25T02:45:28;9.65;;;4.70;;
55290;SDS011;41155;39.768;2.712;2023-04-25T02:47:53;7.03;;;4.90;;
55290;SDS011;41155;39.768;2.712;2023-04-25T02:50:19;9.75;;;5.32;;
55290;SDS011;41155;39.768;2.712;2023-04-25T02:52:44;9.25;;;5.40;;
55290;SDS011;41155;39.768;2.712;2023-04-25T02:55:11;7.10;;;5.35;;
55290;SDS011;41155;39.768;2.712;2023-04-25T02:57:38;7.82;;;4.95;;
55290;SDS011;41155;39.768;2.712;2023-04-25T03:00:03;9.85;;;5.18;;
55290;SDS011;41155;39.768;2.712;2023-04-25T03:02:30;6.13;;;4.63;;
55290;SDS011;41155;39.768;2.712;2023-04-25T03:04:55;15.32;;;6.38;;
55290;SDS011;41155;39.768;2.712;2023-04-25T03:07:21;15.52;;;5.70;;
55290;SDS011;41155;39.768;2.712;2023-04-25T03:09:46;13.80;;;5.60;;
55290;SDS011;41155;39.768;2.712;2023-04-25T03:12:12;11.27;;;5.82;;
55290;SDS011;41155;39.768;2.712;2023-04-25T03:14:37;8.88;;;5.28;;
55290;SDS011;41155;39.768;2.712;2023-04-25T03:17:02;10.30;;;6.05;;
55290;SDS011;41155;39.768;2.712;2023-04-25T03:19:28;13.57;;;5.70;;
55290;SDS011;41155;39.768;2.712;2023-04-25T03:21:53;6.57;;;5.40;;
55290;SDS011;41155;39.768;2.712;2023-04-25T03:24:19;8.20;;;5.50;;
55290;SDS011;41155;39.768;2.712;2023-04-25T03:26:44;8.45;;;5.03;;
55290;SDS011;41155;39.768;2.712;2023-04-25T03:29:10;6.78;;;5.20;;
55290;SDS011;41155;39.768;2.712;2023-04-25T03:31:35;9.02;;;5.53;;
55290;SDS011;41155;39.768;2.712;2023-04-25T03:34:01;9.82;;;5.50;;
55290;SDS011;41155;39.768;2.712;2023-04-25T03:36:26;8.98;;;5.30;;
55290;SDS011;41155;39.768;2.712;2023-04-25T03:38:52;8.90;;;5.00;;
55290;SDS011;41155;39.768;2.712;2023-04-25T03:41:17;6.70;;;4.85;;
55290;SDS011;41155;39.768;2.712;2023-04-25T03:43:43;9.50;;;5.43;;
55290;SDS011;41155;39.768;2.712;2023-04-25T03:46:08;13.52;;;5.93;;
55290;SDS011;41155;39.768;2.712;2023-04-25T03:48:33;8.90;;;6.00;;
55290;SDS011;41155;39.768;2.712;2023-04-25T03:50:59;7.40;;;5.60;;
55290;SDS011;41155;39.768;2.712;2023-04-25T03:53:25;7.63;;;5.10;;
55290;SDS011;41155;39.768;2.712;2023-04-25T03:55:50;7.70;;;5.40;;
55290;SDS011;41155;39.768;2.712;2023-04-25T03:58:16;18.90;;;5.68;;
55290;SDS011;41155;39.768;2.712;2023-04-25T04:00:42;8.35;;;5.75;;
55290;SDS011;41155;39.768;2.712;2023-04-25T04:03:07;9.35;;;5.85;;
55290;SDS011;41155;39.768;2.712;2023-04-25T04:05:33;7.50;;;5.57;;
55290;SDS011;41155;39.768;2.712;2023-04-25T04:07:58;6.63;;;4.93;;
55290;SDS011;41155;39.768;2.712;2023-04-25T04:10:24;16.75;;;5.80;;
55290;SDS011;41155;39.768;2.712;2023-04-25T04:12:51;12.95;;;6.85;;
55290;SDS011;41155;39.768;2.712;2023-04-25T04:15:16;8.00;;;6.15;;
55290;SDS011;41155;39.768;2.712;2023-04-25T04:17:41;6.50;;;5.72;;
55290;SDS011;41155;39.768;2.712;2023-04-25T04:20:07;10.65;;;6.22;;
55290;SDS011;41155;39.768;2.712;2023-04-25T04:22:33;9.45;;;7.70;;
55290;SDS011;41155;39.768;2.712;2023-04-25T04:24:59;11.02;;;6.47;;
55290;SDS011;41155;39.768;2.712;2023-04-25T04:27:25;8.57;;;6.22;;
55290;SDS011;41155;39.768;2.712;2023-04-25T04:29:50;16.27;;;6.90;;
55290;SDS011;41155;39.768;2.712;2023-04-25T04:32:18;11.57;;;6.60;;
55290;SDS011;41155;39.768;2.712;2023-04-25T04:34:43;14.00;;;7.10;;
55290;SDS011;41155;39.768;2.712;2023-04-25T04:37:09;8.48;;;6.78;;
55290;SDS011;41155;39.768;2.712;2023-04-25T04:39:35;9.98;;;5.78;;
55290;SDS011;41155;39.768;2.712;2023-04-25T04:42:01;23.33;;;6.68;;
55290;SDS011;41155;39.768;2.712;2023-04-25T04:44:28;10.50;;;5.65;;
55290;SDS011;41155;39.768;2.712;2023-04-25T04:46:57;19.15;;;7.00;;
55290;SDS011;41155;39.768;2.712;2023-04-25T04:49:23;9.00;;;5.47;;
55290;SDS011;41155;39.768;2.712;2023-04-25T04:51:48;11.35;;;5.70;;
55290;SDS011;41155;39.768;2.712;2023-04-25T04:54:14;17.70;;;6.95;;
55290;SDS011;41155;39.768;2.712;2023-04-25T04:56:43;16.67;;;6.68;;
55290;SDS011;41155;39.768;2.712;2023-04-25T04:59:09;13.60;;;6.40;;
55290;SDS011;41155;39.768;2.712;2023-04-25T05:01:36;16.45;;;6.30;;
55290;SDS011;41155;39.768;2.712;2023-04-25T05:04:02;15.70;;;7.30;;
55290;SDS011;41155;39.768;2.712;2023-04-25T05:06:31;16.33;;;6.15;;
55290;SDS011;41155;39.768;2.712;2023-04-25T05:08:56;15.82;;;5.65;;
55290;SDS011;41155;39.768;2.712;2023-04-25T05:11:23;14.18;;;7.25;;
55290;SDS011;41155;39.768;2.712;2023-04-25T05:13:50;22.73;;;6.43;;
55290;SDS011;41155;39.768;2.712;2023-04-25T05:16:17;8.75;;;6.00;;
55290;SDS011;41155;39.768;2.712;2023-04-25T05:18:42;12.02;;;6.13;;
55290;SDS011;41155;39.768;2.712;2023-04-25T05:21:08;11.68;;;5.57;;
55290;SDS011;41155;39.768;2.712;2023-04-25T05:23:33;14.00;;;6.75;;
55290;SDS011;41155;39.768;2.712;2023-04-25T05:25:59;25.38;;;6.95;;
55290;SDS011;41155;39.768;2.712;2023-04-25T05:28:24;17.02;;;6.55;;
55290;SDS011;41155;39.768;2.712;2023-04-25T05:30:50;17.70;;;7.82;;
55290;SDS011;41155;39.768;2.712;2023-04-25T05:33:16;14.32;;;7.05;;
55290;SDS011;41155;39.768;2.712;2023-04-25T05:35:42;13.55;;;7.00;;
55290;SDS011;41155;39.768;2.712;2023-04-25T05:38:07;19.80;;;12.95;;
55290;SDS011;41155;39.768;2.712;2023-04-25T05:40:33;24.17;;;7.82;;
55290;SDS011;41155;39.768;2.712;2023-04-25T05:42:58;23.05;;;7.72;;
55290;SDS011;41155;39.768;2.712;2023-04-25T05:45:24;14.48;;;7.07;;
55290;SDS011;41155;39.768;2.712;2023-04-25T05:47:49;16.02;;;7.75;;
55290;SDS011;41155;39.768;2.712;2023-04-25T05:50:15;19.17;;;9.82;;
55290;SDS011;41155;39.768;2.712;2023-04-25T05:52:40;15.05;;;8.93;;
55290;SDS011;41155;39.768;2.712;2023-04-25T05:55:06;15.85;;;8.45;;
55290;SDS011;41155;39.768;2.712;2023-04-25T05:57:32;18.10;;;9.25;;
55290;SDS011;41155;39.768;2.712;2023-04-25T05:59:57;20.63;;;8.32;;
55290;SDS011;41155;39.768;2.712;2023-04-25T06:02:23;11.43;;;6.93;;
55290;SDS011;41155;39.768;2.712;2023-04-25T06:04:51;21.50;;;7.68;;
55290;SDS011;41155;39.768;2.712;2023-04-25T06:07:18;24.05;;;8.18;;
55290;SDS011;41155;39.768;2.712;2023-04-25T06:09:44;19.75;;;7.95;;
55290;SDS011;41155;39.768;2.712;2023-04-25T06:12:10;17.30;;;6.88;;
55290;SDS011;41155;39.768;2.712;2023-04-25T06:14:35;17.95;;;6.53;;
55290;SDS011;41155;39.768;2.712;2023-04-25T06:17:02;24.92;;;6.50;;
55290;SDS011;41155;39.768;2.712;2023-04-25T06:19:32;10.10;;;6.53;;
55290;SDS011;41155;39.768;2.712;2023-04-25T06:21:58;22.13;;;12.13;;
55290;SDS011;41155;39.768;2.712;2023-04-25T06:24:23;28.55;;;13.30;;
55290;SDS011;41155;39.768;2.712;2023-04-25T06:26:52;24.65;;;10.57;;
55290;SDS011;41155;39.768;2.712;2023-04-25T06:29:18;32.10;;;10.90;;
55290;SDS011;41155;39.768;2.712;2023-04-25T06:31:43;35.85;;;13.00;;
55290;SDS011;41155;39.768;2.712;2023-04-25T06:34:09;24.65;;;13.57;;
55290;SDS011;41155;39.768;2.712;2023-04-25T06:36:34;27.05;;;11.57;;
55290;SDS011;41155;39.768;2.712;2023-04-25T06:39:00;30.52;;;11.90;;
55290;SDS011;41155;39.768;2.712;2023-04-25T06:41:25;25.17;;;10.68;;
55290;SDS011;41155;39.768;2.712;2023-04-25T06:43:51;34.28;;;13.10;;
55290;SDS011;41155;39.768;2.712;2023-04-25T06:46:16;26.90;;;11.15;;
55290;SDS011;41155;39.768;2.712;2023-04-25T06:48:42;24.38;;;11.45;;
55290;SDS011;41155;39.768;2.712;2023-04-25T06:51:07;34.35;;;10.88;;
55290;SDS011;41155;39.768;2.712;2023-04-25T06:53:33;41.40;;;11.32;;
55290;SDS011;41155;39.768;2.712;2023-04-25T06:55:58;19.45;;;10.82;;
55290;SDS011;41155;39.768;2.712;2023-04-25T06:58:24;27.90;;;11.57;;
55290;SDS011;41155;39.768;2.712;2023-04-25T07:00:51;43.72;;;13.95;;
55290;SDS011;41155;39.768;2.712;2023-04-25T07:03:16;50.75;;;12.25;;
55290;SDS011;41155;39.768;2.712;2023-04-25T07:05:42;19.25;;;11.23;;
55290;SDS011;41155;39.768;2.712;2023-04-25T07:08:07;32.75;;;10.27;;
55290;SDS011;41155;39.768;2.712;2023-04-25T07:10:33;25.38;;;11.00;;
55290;SDS011;41155;39.768;2.712;2023-04-25T07:12:58;16.63;;;8.10;;
55290;SDS011;41155;39.768;2.712;2023-04-25T07:15:24;19.15;;;8.57;;
55290;SDS011;41155;39.768;2.712;2023-04-25T07:17:49;16.90;;;8.70;;
55290;SDS011;41155;39.768;2.712;2023-04-25T07:20:15;31.88;;;11.02;;
55290;SDS011;41155;39.768;2.712;2023-04-25T07:22:41;17.85;;;8.13;;
55290;SDS011;41155;39.768;2.712;2023-04-25T07:25:06;30.75;;;8.45;;
55290;SDS011;41155;39.768;2.712;2023-04-25T07:27:33;27.98;;;8.02;;
55290;SDS011;41155;39.768;2.712;2023-04-25T07:29:59;32.28;;;8.65;;
55290;SDS011;41155;39.768;2.712;2023-04-25T07:32:25;26.60;;;8.43;;
55290;SDS011;41155;39.768;2.712;2023-04-25T07:34:51;24.10;;;10.02;;
55290;SDS011;41155;39.768;2.712;2023-04-25T07:37:16;33.08;;;19.23;;
55290;SDS011;41155;39.768;2.712;2023-04-25T07:39:43;39.92;;;19.80;;
55290;SDS011;41155;39.768;2.712;2023-04-25T07:42:11;30.38;;;16.40;;
55290;SDS011;41155;39.768;2.712;2023-04-25T07:44:36;26.10;;;12.55;;
55290;SDS011;41155;39.768;2.712;2023-04-25T07:47:04;20.67;;;10.60;;
55290;SDS011;41155;39.768;2.712;2023-04-25T07:49:32;27.35;;;13.20;;
55290;SDS011;41155;39.768;2.712;2023-04-25T07:52:02;49.80;;;20.60;;
55290;SDS011;41155;39.768;2.712;2023-04-25T07:54:28;88.68;;;40.28;;
55290;SDS011;41155;39.768;2.712;2023-04-25T07:56:54;77.63;;;39.47;;
55290;SDS011;41155;39.768;2.712;2023-04-25T07:59:20;71.13;;;35.50;;
55290;SDS011;41155;39.768;2.712;2023-04-25T08:01:46;66.60;;;36.08;;
55290;SDS011;41155;39.768;2.712;2023-04-25T08:04:12;59.42;;;33.15;;
55290;SDS011;41155;39.768;2.712;2023-04-25T08:06:37;62.67;;;24.85;;
55290;SDS011;41155;39.768;2.712;2023-04-25T08:09:03;37.33;;;16.95;;
55290;SDS011;41155;39.768;2.712;2023-04-25T08:11:29;24.17;;;12.95;;
55290;SDS011;41155;39.768;2.712;2023-04-25T08:13:54;37.03;;;18.17;;
55290;SDS011;41155;39.768;2.712;2023-04-25T08:16:20;62.03;;;29.98;;
55290;SDS011;41155;39.768;2.712;2023-04-25T08:18:46;71.20;;;36.58;;
55290;SDS011;41155;39.768;2.712;2023-04-25T08:21:11;52.70;;;31.27;;
55290;SDS011;41155;39.768;2.712;2023-04-25T08:23:37;52.05;;;29.30;;
55290;SDS011;41155;39.768;2.712;2023-04-25T08:26:03;58.28;;;30.75;;
55290;SDS011;41155;39.768;2.712;2023-04-25T08:28:30;65.30;;;32.28;;
55290;SDS011;41155;39.768;2.712;2023-04-25T08:30:56;47.72;;;27.67;;
55290;SDS011;41155;39.768;2.712;2023-04-25T08:33:24;54.72;;;18.92;;
55290;SDS011;41155;39.768;2.712;2023-04-25T08:35:50;43.58;;;21.40;;
55290;SDS011;41155;39.768;2.712;2023-04-25T08:38:15;32.15;;;19.55;;
55290;SDS011;41155;39.768;2.712;2023-04-25T08:40:42;33.88;;;14.20;;
55290;SDS011;41155;39.768;2.712;2023-04-25T08:43:08;19.45;;;8.23;;
55290;SDS011;41155;39.768;2.712;2023-04-25T08:45:38;15.95;;;6.95;;
55290;SDS011;41155;39.768;2.712;2023-04-25T08:48:11;17.67;;;5.32;;
55290;SDS011;41155;39.768;2.712;2023-04-25T08:50:58;10.48;;;5.50;;
55290;SDS011;41155;39.768;2.712;2023-04-25T08:53:28;12.30;;;5.68;;
55290;SDS011;41155;39.768;2.712;2023-04-25T08:55:56;16.88;;;6.00;;
55290;SDS011;41155;39.768;2.712;2023-04-25T08:58:23;18.15;;;7.10;;
55290;SDS011;41155;39.768;2.712;2023-04-25T09:00:49;17.85;;;6.65;;
55290;SDS011;41155;39.768;2.712;2023-04-25T09:03:16;17.30;;;6.53;;
55290;SDS011;41155;39.768;2.712;2023-04-25T09:05:42;18.50;;;7.35;;
55290;SDS011;41155;39.768;2.712;2023-04-25T09:08:08;20.52;;;7.55;;
55290;SDS011;41155;39.768;2.712;2023-04-25T09:10:34;20.45;;;8.15;;
55290;SDS011;41155;39.768;2.712;2023-04-25T09:13:07;23.60;;;7.25;;
55290;SDS011;41155;39.768;2.712;2023-04-25T09:15:53;21.75;;;9.02;;
55290;SDS011;41155;39.768;2.712;2023-04-25T09:20:53;19.58;;;6.50;;
55290;SDS011;41155;39.768;2.712;2023-04-25T09:23:19;12.80;;;6.50;;
55290;SDS011;41155;39.768;2.712;2023-04-25T09:25:52;15.77;;;6.53;;
55290;SDS011;41155;39.768;2.712;2023-04-25T09:28:25;24.63;;;7.72;;
55290;SDS011;41155;39.768;2.712;2023-04-25T09:30:55;17.55;;;7.20;;
55290;SDS011;41155;39.768;2.712;2023-04-25T09:33:26;18.38;;;7.30;;
55290;SDS011;41155;39.768;2.712;2023-04-25T09:36:06;22.15;;;6.40;;
55290;SDS011;41155;39.768;2.712;2023-04-25T09:38:40;16.27;;;5.72;;
55290;SDS011;41155;39.768;2.712;2023-04-25T09:41:07;11.27;;;5.35;;
55290;SDS011;41155;39.768;2.712;2023-04-25T09:43:34;15.07;;;5.55;;
55290;SDS011;41155;39.768;2.712;2023-04-25T09:46:00;13.82;;;6.25;;
55290;SDS011;41155;39.768;2.712;2023-04-25T09:48:27;19.33;;;6.40;;
55290;SDS011;41155;39.768;2.712;2023-04-25T09:51:09;20.40;;;10.02;;
55290;SDS011;41155;39.768;2.712;2023-04-25T09:53:41;18.27;;;8.77;;
55290;SDS011;41155;39.768;2.712;2023-04-25T09:56:12;17.67;;;6.45;;
55290;SDS011;41155;39.768;2.712;2023-04-25T09:58:38;20.15;;;6.13;;
55290;SDS011;41155;39.768;2.712;2023-04-25T10:01:09;13.13;;;5.22;;
55290;SDS011;41155;39.768;2.712;2023-04-25T10:03:39;12.02;;;4.43;;
55290;SDS011;41155;39.768;2.712;2023-04-25T10:06:09;13.02;;;4.88;;
55290;SDS011;41155;39.768;2.712;2023-04-25T10:08:39;16.63;;;4.63;;
55290;SDS011;41155;39.768;2.712;2023-04-25T10:11:07;10.25;;;4.97;;
55290;SDS011;41155;39.768;2.712;2023-04-25T10:13:34;15.75;;;5.20;;
55290;SDS011;41155;39.768;2.712;2023-04-25T10:16:01;11.73;;;4.30;;
55290;SDS011;41155;39.768;2.712;2023-04-25T10:18:28;15.10;;;5.45;;
55290;SDS011;41155;39.768;2.712;2023-04-25T10:20:55;13.60;;;5.28;;
55290;SDS011;41155;39.768;2.712;2023-04-25T10:23:22;23.67;;;5.55;;
55290;SDS011;41155;39.768;2.712;2023-04-25T10:25:49;12.52;;;5.55;;
55290;SDS011;41155;39.768;2.712;2023-04-25T10:28:16;14.70;;;5.15;;
55290;SDS011;41155;39.768;2.712;2023-04-25T10:30:58;12.35;;;5.20;;
55290;SDS011;41155;39.768;2.712;2023-04-25T10:33:37;34.85;;;5.50;;
55290;SDS011;41155;39.768;2.712;2023-04-25T10:36:14;28.45;;;5.53;;
55290;SDS011;41155;39.768;2.712;2023-04-25T10:38:43;32.20;;;6.10;;
55290;SDS011;41155;39.768;2.712;2023-04-25T10:41:10;18.58;;;5.60;;
55290;SDS011;41155;39.768;2.712;2023-04-25T10:43:41;18.20;;;5.65;;
55290;SDS011;41155;39.768;2.712;2023-04-25T10:46:17;22.95;;;7.10;;
55290;SDS011;41155;39.768;2.712;2023-04-25T10:48:50;17.48;;;6.13;;
55290;SDS011;41155;39.768;2.712;2023-04-25T10:51:21;21.67;;;6.07;;
55290;SDS011;41155;39.768;2.712;2023-04-25T10:53:56;14.05;;;5.35;;
55290;SDS011;41155;39.768;2.712;2023-04-25T10:56:30;13.07;;;4.68;;
55290;SDS011;41155;39.768;2.712;2023-04-25T11:01:35;13.77;;;4.13;;
55290;SDS011;41155;39.768;2.712;2023-04-25T11:09:33;18.30;;;4.93;;
55290;SDS011;41155;39.768;2.712;2023-04-25T11:12:00;14.48;;;4.43;;
55290;SDS011;41155;39.768;2.712;2023-04-25T11:14:26;160.68;;;18.55;;
55290;SDS011;41155;39.768;2.712;2023-04-25T11:17:01;31.10;;;6.60;;
55290;SDS011;41155;39.768;2.712;2023-04-25T11:19:29;33.38;;;6.45;;
55290;SDS011;41155;39.768;2.712;2023-04-25T11:21:58;12.38;;;4.47;;
55290;SDS011;41155;39.768;2.712;2023-04-25T11:24:28;113.57;;;16.15;;
55290;SDS011;41155;39.768;2.712;2023-04-25T11:26:56;31.27;;;5.25;;
55290;SDS011;41155;39.768;2.712;2023-04-25T11:29:23;63.03;;;8.25;;
55290;SDS011;41155;39.768;2.712;2023-04-25T11:31:52;17.90;;;3.47;;
55290;SDS011;41155;39.768;2.712;2023-04-25T11:34:18;10.25;;;3.28;;
55290;SDS011;41155;39.768;2.712;2023-04-25T11:36:44;16.65;;;3.45;;
55290;SDS011;41155;39.768;2.712;2023-04-25T11:39:10;13.73;;;3.03;;
55290;SDS011;41155;39.768;2.712;2023-04-25T11:41:39;10.43;;;3.80;;
55290;SDS011;41155;39.768;2.712;2023-04-25T11:44:05;10.68;;;3.67;;
55290;SDS011;41155;39.768;2.712;2023-04-25T11:46:30;13.98;;;4.35;;
55290;SDS011;41155;39.768;2.712;2023-04-25T11:48:59;10.00;;;3.65;;
55290;SDS011;41155;39.768;2.712;2023-04-25T11:51:25;16.77;;;4.25;;
55290;SDS011;41155;39.768;2.712;2023-04-25T11:53:51;10.85;;;3.60;;
55290;SDS011;41155;39.768;2.712;2023-04-25T11:56:17;12.05;;;6.22;;
55290;SDS011;41155;39.768;2.712;2023-04-25T11:58:58;21.33;;;4.20;;
55290;SDS011;41155;39.768;2.712;2023-04-25T12:01:28;9.70;;;4.10;;
55290;SDS011;41155;39.768;2.712;2023-04-25T12:03:58;7.53;;;3.10;;
55290;SDS011;41155;39.768;2.712;2023-04-25T12:06:36;10.35;;;2.75;;
55290;SDS011;41155;39.768;2.712;2023-04-25T12:09:06;3.28;;;2.13;;
55290;SDS011;41155;39.768;2.712;2023-04-25T12:11:40;7.57;;;2.35;;
55290;SDS011;41155;39.768;2.712;2023-04-25T12:14:33;5.30;;;2.70;;
55290;SDS011;41155;39.768;2.712;2023-04-25T12:17:01;8.85;;;2.28;;
55290;SDS011;41155;39.768;2.712;2023-04-25T12:19:35;5.07;;;2.53;;
55290;SDS011;41155;39.768;2.712;2023-04-25T12:22:17;5.75;;;2.33;;
55290;SDS011;41155;39.768;2.712;2023-04-25T12:24:48;5.95;;;2.40;;
55290;SDS011;41155;39.768;2.712;2023-04-25T12:27:16;4.18;;;2.00;;
55290;SDS011;41155;39.768;2.712;2023-04-25T12:29:51;12.60;;;3.90;;
55290;SDS011;41155;39.768;2.712;2023-04-25T12:32:18;8.10;;;2.63;;
55290;SDS011;41155;39.768;2.712;2023-04-25T12:34:44;7.38;;;2.38;;
55290;SDS011;41155;39.768;2.712;2023-04-25T12:37:10;5.38;;;1.77;;
55290;SDS011;41155;39.768;2.712;2023-04-25T12:39:36;4.15;;;1.98;;
55290;SDS011;41155;39.768;2.712;2023-04-25T12:42:01;5.95;;;2.30;;
55290;SDS011;41155;39.768;2.712;2023-04-25T12:44:28;7.10;;;2.30;;
55290;SDS011;41155;39.768;2.712;2023-04-25T12:46:53;7.15;;;1.80;;
55290;SDS011;41155;39.768;2.712;2023-04-25T12:49:19;4.60;;;1.15;;
55290;SDS011;41155;39.768;2.712;2023-04-25T12:51:45;3.00;;;1.83;;
55290;SDS011;41155;39.768;2.712;2023-04-25T12:54:11;15.10;;;1.88;;
55290;SDS011;41155;39.768;2.712;2023-04-25T12:56:37;3.92;;;1.50;;
55290;SDS011;41155;39.768;2.712;2023-04-25T12:59:02;5.38;;;1.88;;
55290;SDS011;41155;39.768;2.712;2023-04-25T13:01:28;7.10;;;1.63;;
55290;SDS011;41155;39.768;2.712;2023-04-25T13:03:54;1.35;;;0.95;;
55290;SDS011;41155;39.768;2.712;2023-04-25T13:06:21;5.97;;;3.30;;
55290;SDS011;41155;39.768;2.712;2023-04-25T13:08:47;3.17;;;1.58;;
55290;SDS011;41155;39.768;2.712;2023-04-25T13:11:13;8.52;;;1.65;;
55290;SDS011;41155;39.768;2.712;2023-04-25T13:13:40;6.45;;;1.85;;
55290;SDS011;41155;39.768;2.712;2023-04-25T13:16:05;2.47;;;1.55;;
55290;SDS011;41155;39.768;2.712;2023-04-25T13:18:32;11.43;;;2.42;;
55290;SDS011;41155;39.768;2.712;2023-04-25T13:20:58;2.90;;;1.27;;
55290;SDS011;41155;39.768;2.712;2023-04-25T13:23:27;3.90;;;1.55;;
55290;SDS011;41155;39.768;2.712;2023-04-25T13:25:54;5.53;;;1.50;;
55290;SDS011;41155;39.768;2.712;2023-04-25T13:28:22;3.13;;;1.38;;
55290;SDS011;41155;39.768;2.712;2023-04-25T13:30:48;8.43;;;2.15;;
55290;SDS011;41155;39.768;2.712;2023-04-25T13:33:14;4.22;;;1.50;;
55290;SDS011;41155;39.768;2.712;2023-04-25T13:35:41;3.20;;;1.60;;
55290;SDS011;41155;39.768;2.712;2023-04-25T13:38:07;7.32;;;2.08;;
55290;SDS011;41155;39.768;2.712;2023-04-25T13:40:32;4.60;;;1.73;;
55290;SDS011;41155;39.768;2.712;2023-04-25T13:42:58;5.47;;;1.40;;
55290;SDS011;41155;39.768;2.712;2023-04-25T13:45:24;9.07;;;1.65;;
55290;SDS011;41155;39.768;2.712;2023-04-25T13:47:50;8.32;;;1.80;;
55290;SDS011;41155;39.768;2.712;2023-04-25T13:50:16;4.10;;;1.58;;
55290;SDS011;41155;39.768;2.712;2023-04-25T13:52:45;7.00;;;1.80;;
55290;SDS011;41155;39.768;2.712;2023-04-25T13:55:10;6.93;;;1.95;;
55290;SDS011;41155;39.768;2.712;2023-04-25T13:57:36;3.47;;;1.67;;
55290;SDS011;41155;39.768;2.712;2023-04-25T14:00:03;11.13;;;1.85;;
55290;SDS011;41155;39.768;2.712;2023-04-25T14:02:33;3.55;;;1.88;;
55290;SDS011;41155;39.768;2.712;2023-04-25T14:05:03;4.78;;;1.67;;
55290;SDS011;41155;39.768;2.712;2023-04-25T14:07:29;3.47;;;1.58;;
55290;SDS011;41155;39.768;2.712;2023-04-25T14:09:55;3.30;;;1.80;;
55290;SDS011;41155;39.768;2.712;2023-04-25T14:12:22;4.47;;;2.08;;
55290;SDS011;41155;39.768;2.712;2023-04-25T14:14:48;5.45;;;1.92;;
55290;SDS011;41155;39.768;2.712;2023-04-25T14:17:13;5.22;;;2.00;;
55290;SDS011;41155;39.768;2.712;2023-04-25T14:19:39;6.22;;;1.98;;
55290;SDS011;41155;39.768;2.712;2023-04-25T14:22:08;3.70;;;1.60;;
55290;SDS011;41155;39.768;2.712;2023-04-25T14:24:34;9.20;;;2.30;;
55290;SDS011;41155;39.768;2.712;2023-04-25T14:26:59;4.28;;;1.80;;
55290;SDS011;41155;39.768;2.712;2023-04-25T14:29:25;11.70;;;1.90;;
55290;SDS011;41155;39.768;2.712;2023-04-25T14:31:51;7.30;;;1.73;;
55290;SDS011;41155;39.768;2.712;2023-04-25T14:34:17;5.32;;;1.65;;
55290;SDS011;41155;39.768;2.712;2023-04-25T14:36:43;6.53;;;2.38;;
55290;SDS011;41155;39.768;2.712;2023-04-25T14:39:08;13.00;;;2.08;;
55290;SDS011;41155;39.768;2.712;2023-04-25T14:41:35;11.25;;;1.67;;
55290;SDS011;41155;39.768;2.712;2023-04-25T14:44:00;5.25;;;1.75;;
55290;SDS011;41155;39.768;2.712;2023-04-25T14:46:26;7.47;;;1.33;;
55290;SDS011;41155;39.768;2.712;2023-04-25T14:48:52;15.60;;;2.00;;